Knox, IN

8:10 PM CDT on March 28, 2017 (GMT -0500)
Starke County

Weather History for KOXI - July, 2014

Change the Weather History Date:

Monday, July 28, 2014

  Actual Average (KSBN) Record (KSBN)
Temperature  
Mean Temperature 57 °F -  
Max Temperature 86 °F 81 °F 100 °F (1983)
Min Temperature 50 °F 62 °F 47 °F (1925)
Degree Days  
Heating Degree Days 8    
Growing Degree Days 7 (Base 50)    
Moisture  
Dew Point 51 °F    
Average Humidity 73    
Maximum Humidity 88    
Minimum Humidity 52    
Precipitation  
Precipitation 0.00 in - - ()
Sea Level Pressure  
Sea Level Pressure 30.00 in    
Wind  
Wind Speed 13 mph (NNW)    
Max Wind Speed 18 mph    
Max Gust Speed 28 mph    
Visibility 10 miles    
Events      
Averages and records for this station are not official NWS values.
T = Trace of Precipitation, MM = Missing Value Source: NWS Daily Summary

Daily Weather History Graph

Daily Weather History Graph

Search for Another Location

Airport or City:

Trip Planner

Search our weather history database for the weather conditions in past years. The results will help you decide how hot, cold, wet, or windy it might be!

Date:

Astronomy

Jul. 28, 2014 Rise Set
Actual Time 5:37 AM CDT 8:07 PM CDT
Civil Twilight 5:06 AM CDT 8:39 PM CDT
Nautical Twilight 4:27 AM CDT 9:18 PM CDT
Astronomical Twilight 3:43 AM CDT 10:01 PM CDT
Moon 7:20 AM CDT (7/28) 8:47 PM CDT (7/28)
Length of Visible Light 15h 32m
Length of Day
14h 29m
Waxing Crescent, 3% of the Moon is Illuminated
Jul 28
Waxing Crescent
Aug 3
First Quarter
Aug 10
Full
Aug 17
Last Quarter
Aug 25
New

Hourly Weather History & Observations

Time (CDT) Temp. Dew Point Humidity Pressure Visibility Wind Dir Wind Speed Gust Speed Precip Events Conditions
12:15 AM 64.0 °F 57.9 °F 80% 29.85 in 10.0 mi NNW 12.7 mph 20.7 mph N/A   Overcast
12:35 AM 63.5 °F 57.4 °F 80% 29.85 in 10.0 mi NNW 18.4 mph 24.2 mph N/A   Overcast
12:55 AM 63.0 °F 56.7 °F 80% 29.85 in 10.0 mi NNW 16.1 mph 24.2 mph N/A   Overcast
1:15 AM 62.8 °F 56.1 °F 79% 29.86 in 10.0 mi NNW 13.8 mph 25.3 mph N/A   Overcast
1:35 AM 62.2 °F 55.8 °F 79% 29.85 in 10.0 mi NNW 17.3 mph 24.2 mph N/A   Overcast
2:15 AM 61.9 °F 55.6 °F 80% 29.85 in 10.0 mi NNW 12.7 mph 18.4 mph N/A   Overcast
2:35 AM 61.9 °F 55.6 °F 80% 29.86 in 10.0 mi NNW 11.5 mph 17.3 mph N/A   Overcast
2:55 AM 61.7 °F 55.0 °F 79% 29.87 in 10.0 mi NNW 13.8 mph 24.2 mph N/A   Overcast
3:15 AM 61.9 °F 54.9 °F 78% 29.88 in 10.0 mi NNW 11.5 mph 21.9 mph N/A   Overcast
3:35 AM 61.9 °F 55.2 °F 79% 29.88 in 10.0 mi NNW 13.8 mph 17.3 mph N/A   Overcast
3:55 AM 61.3 °F 55.0 °F 80% 29.88 in 10.0 mi NNW 12.7 mph - N/A   Mostly Cloudy
4:15 AM 60.8 °F 55.0 °F 81% 29.89 in 10.0 mi NNW 11.5 mph - N/A   Overcast
4:35 AM 61.0 °F 55.4 °F 82% 29.90 in 10.0 mi NNW 10.4 mph - N/A   Overcast
4:55 AM 61.0 °F 55.4 °F 82% 29.91 in 10.0 mi NNW 13.8 mph 18.4 mph N/A   Overcast
5:15 AM 61.0 °F 55.0 °F 81% 29.92 in 10.0 mi NNW 12.7 mph 19.6 mph N/A   Overcast
5:35 AM 60.8 °F 54.7 °F 80% 29.92 in 10.0 mi NNW 9.2 mph 17.3 mph N/A   Overcast
5:55 AM 60.6 °F 54.5 °F 80% 29.94 in 10.0 mi NNW 9.2 mph - N/A   Overcast
6:15 AM 60.4 °F 54.1 °F 80% 29.94 in 10.0 mi NNW 12.7 mph 18.4 mph N/A   Overcast
6:35 AM 60.4 °F 54.0 °F 79% 29.95 in 10.0 mi NNW 9.2 mph - N/A   Overcast
6:55 AM 60.4 °F 54.0 °F 79% 29.96 in 10.0 mi NNW 12.7 mph - N/A   Overcast
7:15 AM 60.4 °F 53.8 °F 79% 29.96 in 10.0 mi North 16.1 mph 20.7 mph N/A   Overcast
7:35 AM 60.4 °F 53.8 °F 79% 29.97 in 10.0 mi NNW 13.8 mph 18.4 mph N/A   Overcast
7:55 AM 60.8 °F 53.6 °F 77% 29.98 in 10.0 mi North 13.8 mph 18.4 mph N/A   Overcast
8:15 AM 60.8 °F 53.4 °F 77% 29.98 in 10.0 mi North 13.8 mph 24.2 mph N/A   Overcast
8:35 AM 61.0 °F 53.4 °F 76% 30.00 in 10.0 mi NNW 12.7 mph 20.7 mph N/A   Overcast
8:55 AM 61.0 °F 53.6 °F 77% 30.00 in 10.0 mi NNW 13.8 mph 19.6 mph N/A   Overcast
9:35 AM 60.8 °F 53.6 °F 77% 30.01 in 10.0 mi North 13.8 mph 19.6 mph N/A   Overcast
9:55 AM 61.0 °F 53.8 °F 77% 30.01 in 10.0 mi North 13.8 mph 19.6 mph N/A   Overcast
10:15 AM 61.5 °F 54.0 °F 76% 30.01 in 10.0 mi North 15.0 mph 19.6 mph N/A   Overcast
10:35 AM 61.7 °F 53.8 °F 75% 30.02 in 10.0 mi NNW 13.8 mph 20.7 mph N/A   Overcast
10:55 AM 61.9 °F 53.6 °F 74% 30.03 in 10.0 mi North 13.8 mph - N/A   Overcast
11:15 AM 61.7 °F 53.1 °F 73% 30.04 in 10.0 mi North 13.8 mph 23.0 mph N/A   Overcast
11:35 AM 61.0 °F 52.5 °F 74% 30.05 in 10.0 mi NNW 13.8 mph 21.9 mph N/A   Overcast
11:55 AM 60.4 °F 52.3 °F 75% 30.05 in 10.0 mi NNW 16.1 mph 21.9 mph N/A   Overcast
12:15 PM 60.3 °F 52.2 °F 75% 30.05 in 10.0 mi NNW 16.1 mph 20.7 mph N/A   Overcast
12:35 PM 59.9 °F 51.8 °F 75% 30.05 in 10.0 mi North 15.0 mph 23.0 mph N/A   Overcast
12:55 PM 60.1 °F 51.6 °F 74% 30.05 in 10.0 mi NNW 11.5 mph 20.7 mph N/A   Overcast
1:15 PM 60.1 °F 51.1 °F 72% 30.05 in 10.0 mi NNW 17.3 mph 20.7 mph N/A   Overcast
1:35 PM 61.2 °F 51.1 °F 69% 30.05 in 10.0 mi NNW 15.0 mph 18.4 mph N/A   Overcast
1:55 PM 61.9 °F 50.4 °F 66% 30.05 in 10.0 mi NW 12.7 mph 20.7 mph N/A   Overcast
2:15 PM 63.0 °F 49.6 °F 62% 30.06 in 10.0 mi NNW 13.8 mph 20.7 mph N/A   Mostly Cloudy
2:35 PM 62.4 °F 49.3 °F 62% 30.06 in 10.0 mi NNW 15.0 mph 20.7 mph N/A   Overcast
3:15 PM 63.5 °F 48.7 °F 59% 30.07 in 10.0 mi NNW 12.7 mph 21.9 mph N/A   Mostly Cloudy
3:35 PM 63.7 °F 48.9 °F 59% 30.07 in 10.0 mi North 15.0 mph 20.7 mph N/A   Scattered Clouds
3:55 PM 64.0 °F 49.1 °F 58% 30.06 in 10.0 mi NNW 13.8 mph 20.7 mph N/A   Scattered Clouds
4:15 PM 63.9 °F 48.7 °F 58% 30.06 in 10.0 mi NNW 16.1 mph 21.9 mph N/A   Scattered Clouds
4:35 PM 64.0 °F 48.4 °F 57% 30.06 in 10.0 mi NNW 13.8 mph 20.7 mph N/A   Scattered Clouds
4:55 PM 63.9 °F 47.7 °F 56% 30.06 in 10.0 mi North 18.4 mph 25.3 mph N/A   Clear
5:15 PM 63.9 °F 47.1 °F 54% 30.06 in 10.0 mi NNW 17.3 mph 23.0 mph N/A   Clear
5:35 PM 63.1 °F 45.9 °F 53% 30.05 in 10.0 mi North 16.1 mph 27.6 mph N/A   Clear
5:55 PM 63.0 °F 45.1 °F 52% 30.05 in 10.0 mi North 13.8 mph 20.7 mph N/A   Clear
6:15 PM 63.0 °F 45.3 °F 53% 30.05 in 10.0 mi North 13.8 mph 23.0 mph N/A   Clear
6:35 PM 62.6 °F 45.0 °F 52% 30.05 in 10.0 mi North 13.8 mph 24.2 mph N/A   Clear
6:55 PM 61.9 °F 44.6 °F 53% 30.05 in 10.0 mi North 9.2 mph 17.3 mph N/A   Clear
7:15 PM 60.8 °F 45.7 °F 57% 30.06 in 10.0 mi North 6.9 mph - N/A   Clear
7:35 PM 59.4 °F 46.4 °F 62% 30.05 in 10.0 mi North 5.8 mph - N/A   Clear
7:55 PM 57.6 °F 46.6 °F 67% 30.05 in 10.0 mi North 4.6 mph - N/A   Clear
8:15 PM 55.0 °F 46.8 °F 74% 30.06 in 10.0 mi North 4.6 mph - N/A   Clear
8:55 PM 52.9 °F 46.2 °F 78% 30.06 in 10.0 mi North 6.9 mph - N/A   Clear
9:15 PM 53.4 °F 46.6 °F 78% 30.06 in 10.0 mi North 6.9 mph - N/A   Clear
9:55 PM 52.9 °F 46.8 °F 80% 30.07 in 10.0 mi Calm Calm - N/A   Clear
10:15 PM 52.0 °F 46.8 °F 82% 30.07 in 10.0 mi Calm Calm - N/A   Clear
10:35 PM 51.4 °F 46.8 °F 84% 30.06 in 10.0 mi SW 3.5 mph - N/A   Clear
10:55 PM 51.1 °F 47.1 °F 86% 30.06 in 10.0 mi SW 3.5 mph - N/A   Scattered Clouds
11:15 PM 50.5 °F 47.1 °F 88% 30.05 in 10.0 mi WSW 3.5 mph - N/A   Scattered Clouds
11:35 PM 50.9 °F 47.5 °F 88% 30.05 in 10.0 mi WSW 3.5 mph - N/A   Mostly Cloudy
11:55 PM 50.5 °F 47.1 °F 88% 30.05 in 10.0 mi Calm Calm - N/A   Scattered Clouds